sensor_id;sensor_type;location;lat;lon;timestamp;pressure;altitude;pressure_sealevel;temperature;humidity
19590;BME280;12231;42.782;23.388;2023-03-18T00:02:07;96064.81;;;0.45;100.00
19590;BME280;12231;42.782;23.388;2023-03-18T00:04:33;96061.41;;;0.46;100.00
19590;BME280;12231;42.782;23.388;2023-03-18T00:06:59;96053.84;;;0.45;100.00
19590;BME280;12231;42.782;23.388;2023-03-18T00:09:25;96053.00;;;0.43;100.00
19590;BME280;12231;42.782;23.388;2023-03-18T00:11:51;96058.09;;;0.41;100.00
19590;BME280;12231;42.782;23.388;2023-03-18T00:14:16;96049.66;;;0.39;100.00
19590;BME280;12231;42.782;23.388;2023-03-18T00:16:43;96043.03;;;0.32;100.00
19590;BME280;12231;42.782;23.388;2023-03-18T00:19:10;96046.41;;;0.31;100.00
19590;BME280;12231;42.782;23.388;2023-03-18T00:21:35;96047.28;;;0.29;100.00
19590;BME280;12231;42.782;23.388;2023-03-18T00:24:01;96042.22;;;0.30;100.00
19590;BME280;12231;42.782;23.388;2023-03-18T00:26:27;96041.34;;;0.30;100.00
19590;BME280;12231;42.782;23.388;2023-03-18T00:28:57;96044.72;;;0.32;100.00
19590;BME280;12231;42.782;23.388;2023-03-18T00:31:24;96034.59;;;0.32;100.00
19590;BME280;12231;42.782;23.388;2023-03-18T00:33:50;96037.09;;;0.33;100.00
19590;BME280;12231;42.782;23.388;2023-03-18T00:36:16;96035.44;;;0.31;100.00
19590;BME280;12231;42.782;23.388;2023-03-18T00:38:44;96031.34;;;0.21;100.00
19590;BME280;12231;42.782;23.388;2023-03-18T00:41:10;96023.75;;;0.21;100.00
19590;BME280;12231;42.782;23.388;2023-03-18T00:43:55;96027.91;;;0.25;100.00
19590;BME280;12231;42.782;23.388;2023-03-18T00:46:22;96021.19;;;0.24;100.00
19590;BME280;12231;42.782;23.388;2023-03-18T00:48:49;96016.22;;;0.13;100.00
19590;BME280;12231;42.782;23.388;2023-03-18T00:51:15;96012.97;;;0.05;100.00
19590;BME280;12231;42.782;23.388;2023-03-18T00:53:45;96013.81;;;0.06;100.00
19590;BME280;12231;42.782;23.388;2023-03-18T00:56:12;96010.56;;;-0.04;100.00
19590;BME280;12231;42.782;23.388;2023-03-18T00:58:38;96010.78;;;-0.24;100.00
19590;BME280;12231;42.782;23.388;2023-03-18T01:01:06;96002.69;;;-0.53;100.00
19590;BME280;12231;42.782;23.388;2023-03-18T01:03:33;96001.56;;;-0.29;100.00
19590;BME280;12231;42.782;23.388;2023-03-18T01:06:02;96010.88;;;-0.30;100.00
19590;BME280;12231;42.782;23.388;2023-03-18T01:08:28;96007.34;;;-0.17;100.00
19590;BME280;12231;42.782;23.388;2023-03-18T01:10:55;96001.34;;;-0.11;100.00
19590;BME280;12231;42.782;23.388;2023-03-18T01:13:21;95999.81;;;-0.24;100.00
19590;BME280;12231;42.782;23.388;2023-03-18T01:15:49;95998.00;;;-0.15;100.00
19590;BME280;12231;42.782;23.388;2023-03-18T01:18:14;96001.38;;;-0.14;100.00
19590;BME280;12231;42.782;23.388;2023-03-18T01:20:40;96000.56;;;-0.13;100.00
19590;BME280;12231;42.782;23.388;2023-03-18T01:23:07;95994.63;;;-0.14;100.00
19590;BME280;12231;42.782;23.388;2023-03-18T01:25:33;95993.75;;;-0.11;100.00
19590;BME280;12231;42.782;23.388;2023-03-18T01:27:59;96002.22;;;-0.14;100.00
19590;BME280;12231;42.782;23.388;2023-03-18T01:30:24;95995.47;;;-0.15;100.00
19590;BME280;12231;42.782;23.388;2023-03-18T01:32:50;95994.72;;;-0.21;100.00
19590;BME280;12231;42.782;23.388;2023-03-18T01:35:15;95992.13;;;-0.15;100.00
19590;BME280;12231;42.782;23.388;2023-03-18T01:37:42;95990.41;;;-0.12;100.00
19590;BME280;12231;42.782;23.388;2023-03-18T01:40:10;95990.38;;;-0.10;100.00
19590;BME280;12231;42.782;23.388;2023-03-18T01:42:36;95986.09;;;-0.08;100.00
19590;BME280;12231;42.782;23.388;2023-03-18T01:45:17;95989.44;;;-0.05;100.00
19590;BME280;12231;42.782;23.388;2023-03-18T01:47:44;95983.59;;;-0.07;100.00
19590;BME280;12231;42.782;23.388;2023-03-18T01:50:13;95986.06;;;-0.04;100.00
19590;BME280;12231;42.782;23.388;2023-03-18T01:52:39;95991.16;;;-0.08;100.00
19590;BME280;12231;42.782;23.388;2023-03-18T01:55:11;95988.72;;;-0.13;100.00
19590;BME280;12231;42.782;23.388;2023-03-18T01:57:38;95978.53;;;-0.10;100.00
19590;BME280;12231;42.782;23.388;2023-03-18T02:00:06;95983.66;;;-0.14;100.00
19590;BME280;12231;42.782;23.388;2023-03-18T02:02:35;95976.03;;;-0.13;100.00
19590;BME280;12231;42.782;23.388;2023-03-18T02:05:03;95974.44;;;-0.18;100.00
19590;BME280;12231;42.782;23.388;2023-03-18T02:07:33;95970.25;;;-0.21;100.00
19590;BME280;12231;42.782;23.388;2023-03-18T02:10:02;95976.25;;;-0.29;100.00
19590;BME280;12231;42.782;23.388;2023-03-18T02:12:33;95975.47;;;-0.36;100.00
19590;BME280;12231;42.782;23.388;2023-03-18T02:15:03;95978.00;;;-0.36;100.00
19590;BME280;12231;42.782;23.388;2023-03-18T02:17:32;95978.06;;;-0.40;100.00
19590;BME280;12231;42.782;23.388;2023-03-18T02:22:42;95979.09;;;-0.55;100.00
19590;BME280;12231;42.782;23.388;2023-03-18T02:25:31;95977.19;;;-0.35;100.00
19590;BME280;12231;42.782;23.388;2023-03-18T02:28:00;95975.53;;;-0.39;100.00
19590;BME280;12231;42.782;23.388;2023-03-18T02:30:32;95970.53;;;-0.45;100.00
19590;BME280;12231;42.782;23.388;2023-03-18T02:33:00;95973.38;;;-0.01;100.00
19590;BME280;12231;42.782;23.388;2023-03-18T02:35:27;95969.75;;;-0.50;100.00
19590;BME280;12231;42.782;23.388;2023-03-18T02:37:54;95966.66;;;-0.76;100.00
19590;BME280;12231;42.782;23.388;2023-03-18T02:40:22;95962.34;;;-0.68;100.00
19590;BME280;12231;42.782;23.388;2023-03-18T02:42:47;95969.84;;;-0.57;100.00
19590;BME280;12231;42.782;23.388;2023-03-18T02:45:41;95970.63;;;-0.51;100.00
19590;BME280;12231;42.782;23.388;2023-03-18T02:48:12;95973.19;;;-0.54;100.00
19590;BME280;12231;42.782;23.388;2023-03-18T02:50:40;95970.66;;;-0.57;100.00
19590;BME280;12231;42.782;23.388;2023-03-18T02:53:05;95967.34;;;-0.60;100.00
19590;BME280;12231;42.782;23.388;2023-03-18T02:55:32;95971.59;;;-0.62;100.00
19590;BME280;12231;42.782;23.388;2023-03-18T02:57:57;95969.03;;;-0.61;100.00
19590;BME280;12231;42.782;23.388;2023-03-18T03:00:22;95973.31;;;-0.66;100.00
19590;BME280;12231;42.782;23.388;2023-03-18T03:02:48;95967.41;;;-0.66;100.00
19590;BME280;12231;42.782;23.388;2023-03-18T03:05:13;95969.13;;;-0.67;100.00
19590;BME280;12231;42.782;23.388;2023-03-18T03:07:39;95971.66;;;-0.71;100.00
19590;BME280;12231;42.782;23.388;2023-03-18T03:10:06;95970.03;;;-0.74;100.00
19590;BME280;12231;42.782;23.388;2023-03-18T03:12:32;95971.75;;;-0.77;100.00
19590;BME280;12231;42.782;23.388;2023-03-18T03:14:57;95970.91;;;-0.79;100.00
19590;BME280;12231;42.782;23.388;2023-03-18T03:17:23;95970.88;;;-0.78;100.00
19590;BME280;12231;42.782;23.388;2023-03-18T03:19:48;95975.16;;;-0.84;100.00
19590;BME280;12231;42.782;23.388;2023-03-18T03:22:15;95975.25;;;-0.90;100.00
19590;BME280;12231;42.782;23.388;2023-03-18T03:24:41;95981.09;;;-0.85;100.00
19590;BME280;12231;42.782;23.388;2023-03-18T03:27:07;95982.81;;;-0.90;100.00
19590;BME280;12231;42.782;23.388;2023-03-18T03:29:32;95983.72;;;-0.96;100.00
19590;BME280;12231;42.782;23.388;2023-03-18T03:31:58;95986.31;;;-1.02;100.00
19590;BME280;12231;42.782;23.388;2023-03-18T03:34:23;95993.03;;;-1.02;100.00
19590;BME280;12231;42.782;23.388;2023-03-18T03:36:49;95994.81;;;-1.10;100.00
19590;BME280;12231;42.782;23.388;2023-03-18T03:39:14;95998.25;;;-1.16;100.00
19590;BME280;12231;42.782;23.388;2023-03-18T03:41:39;95992.28;;;-1.12;100.00
19590;BME280;12231;42.782;23.388;2023-03-18T03:44:05;95990.63;;;-1.13;100.00
19590;BME280;12231;42.782;23.388;2023-03-18T03:46:30;95994.00;;;-1.15;100.00
19590;BME280;12231;42.782;23.388;2023-03-18T03:48:56;95991.50;;;-1.18;100.00
19590;BME280;12231;42.782;23.388;2023-03-18T03:51:21;95996.56;;;-1.20;100.00
19590;BME280;12231;42.782;23.388;2023-03-18T03:53:48;95996.53;;;-1.17;100.00
19590;BME280;12231;42.782;23.388;2023-03-18T03:56:14;95994.88;;;-1.18;100.00
19590;BME280;12231;42.782;23.388;2023-03-18T03:58:40;95999.91;;;-1.16;100.00
19590;BME280;12231;42.782;23.388;2023-03-18T04:01:06;95999.06;;;-1.17;100.00
19590;BME280;12231;42.782;23.388;2023-03-18T04:03:32;96002.44;;;-1.15;100.00
19590;BME280;12231;42.782;23.388;2023-03-18T04:05:58;96004.16;;;-1.20;100.00
19590;BME280;12231;42.782;23.388;2023-03-18T04:08:23;96000.78;;;-1.19;100.00
19590;BME280;12231;42.782;23.388;2023-03-18T04:10:49;96007.59;;;-1.27;100.00
19590;BME280;12231;42.782;23.388;2023-03-18T04:13:14;96010.16;;;-1.33;100.00
19590;BME280;12231;42.782;23.388;2023-03-18T04:15:40;96008.50;;;-1.37;100.00
19590;BME280;12231;42.782;23.388;2023-03-18T04:18:06;96010.13;;;-1.31;100.00
19590;BME280;12231;42.782;23.388;2023-03-18T04:20:33;96018.56;;;-1.29;100.00
19590;BME280;12231;42.782;23.388;2023-03-18T04:22:59;96022.78;;;-1.31;100.00
19590;BME280;12231;42.782;23.388;2023-03-18T04:25:25;96024.50;;;-1.33;100.00
19590;BME280;12231;42.782;23.388;2023-03-18T04:27:50;96023.66;;;-1.35;100.00
19590;BME280;12231;42.782;23.388;2023-03-18T04:30:17;96034.66;;;-1.44;100.00
19590;BME280;12231;42.782;23.388;2023-03-18T04:32:44;96016.13;;;-1.42;100.00
19590;BME280;12231;42.782;23.388;2023-03-18T04:35:10;96026.22;;;-1.38;100.00
19590;BME280;12231;42.782;23.388;2023-03-18T04:37:36;96027.06;;;-1.41;100.00
19590;BME280;12231;42.782;23.388;2023-03-18T04:40:03;96033.81;;;-1.40;100.00
19590;BME280;12231;42.782;23.388;2023-03-18T04:42:30;96032.97;;;-1.41;100.00
19590;BME280;12231;42.782;23.388;2023-03-18T04:44:55;96038.88;;;-1.40;100.00
19590;BME280;12231;42.782;23.388;2023-03-18T04:47:22;96037.94;;;-1.27;100.00
19590;BME280;12231;42.782;23.388;2023-03-18T04:49:47;96041.97;;;-1.05;100.00
19590;BME280;12231;42.782;23.388;2023-03-18T04:52:13;96039.19;;;-0.79;100.00
19590;BME280;12231;42.782;23.388;2023-03-18T04:54:39;96038.03;;;-0.47;100.00
19590;BME280;12231;42.782;23.388;2023-03-18T04:57:05;96038.47;;;-0.09;100.00
19590;BME280;12231;42.782;23.388;2023-03-18T04:59:31;96032.16;;;0.24;100.00
19590;BME280;12231;42.782;23.388;2023-03-18T05:01:57;96033.97;;;0.74;100.00
19590;BME280;12231;42.782;23.388;2023-03-18T05:04:22;96032.47;;;1.17;100.00
19590;BME280;12231;42.782;23.388;2023-03-18T05:06:48;96041.09;;;1.07;100.00
19590;BME280;12231;42.782;23.388;2023-03-18T05:09:13;96027.84;;;1.84;100.00
19590;BME280;12231;42.782;23.388;2023-03-18T05:11:39;96039.91;;;2.55;100.00
19590;BME280;12231;42.782;23.388;2023-03-18T05:14:04;96031.88;;;3.10;100.00
19590;BME280;12231;42.782;23.388;2023-03-18T05:16:29;96031.34;;;3.65;100.00
19590;BME280;12231;42.782;23.388;2023-03-18T05:18:55;96045.88;;;3.28;96.31
19590;BME280;12231;42.782;23.388;2023-03-18T05:21:20;96052.28;;;3.76;96.03
19590;BME280;12231;42.782;23.388;2023-03-18T05:23:46;96058.44;;;4.59;93.43
19590;BME280;12231;42.782;23.388;2023-03-18T05:26:11;96057.88;;;5.06;90.55
19590;BME280;12231;42.782;23.388;2023-03-18T05:28:37;96054.72;;;5.77;88.59
19590;BME280;12231;42.782;23.388;2023-03-18T05:31:04;96064.94;;;6.49;86.66
19590;BME280;12231;42.782;23.388;2023-03-18T05:33:29;96051.19;;;6.97;81.71
19590;BME280;12231;42.782;23.388;2023-03-18T05:35:55;96054.25;;;7.49;80.25
19590;BME280;12231;42.782;23.388;2023-03-18T05:38:21;96055.63;;;7.97;78.33
19590;BME280;12231;42.782;23.388;2023-03-18T05:40:46;96053.03;;;8.38;76.24
19590;BME280;12231;42.782;23.388;2023-03-18T05:43:12;96048.66;;;8.60;75.06
19590;BME280;12231;42.782;23.388;2023-03-18T05:45:38;96050.94;;;8.47;75.17
19590;BME280;12231;42.782;23.388;2023-03-18T05:48:04;96049.13;;;8.68;74.89
19590;BME280;12231;42.782;23.388;2023-03-18T05:50:36;96045.44;;;8.92;73.98
19590;BME280;12231;42.782;23.388;2023-03-18T05:53:02;96057.28;;;8.96;73.47
19590;BME280;12231;42.782;23.388;2023-03-18T05:55:28;96045.03;;;9.01;73.07
19590;BME280;12231;42.782;23.388;2023-03-18T05:57:55;96043.94;;;8.88;72.09
19590;BME280;12231;42.782;23.388;2023-03-18T06:00:21;96049.09;;;8.30;75.53
19590;BME280;12231;42.782;23.388;2023-03-18T06:02:47;96043.00;;;8.52;75.04
19590;BME280;12231;42.782;23.388;2023-03-18T06:05:13;96047.66;;;8.44;75.19
19590;BME280;12231;42.782;23.388;2023-03-18T06:07:39;96049.72;;;7.95;76.06
19590;BME280;12231;42.782;23.388;2023-03-18T06:10:05;96048.50;;;7.84;77.12
19590;BME280;12231;42.782;23.388;2023-03-18T06:12:32;96042.53;;;7.63;78.12
19590;BME280;12231;42.782;23.388;2023-03-18T06:14:58;96043.16;;;7.48;78.41
19590;BME280;12231;42.782;23.388;2023-03-18T06:17:23;96047.00;;;7.58;79.25
19590;BME280;12231;42.782;23.388;2023-03-18T06:19:49;96039.16;;;7.83;79.53
19590;BME280;12231;42.782;23.388;2023-03-18T06:22:15;96043.06;;;7.91;79.41
19590;BME280;12231;42.782;23.388;2023-03-18T06:24:43;96036.94;;;8.14;78.30
19590;BME280;12231;42.782;23.388;2023-03-18T06:27:09;96032.53;;;8.75;77.53
19590;BME280;12231;42.782;23.388;2023-03-18T06:29:34;96027.63;;;9.06;74.85
19590;BME280;12231;42.782;23.388;2023-03-18T06:32:01;96031.91;;;8.70;75.56
19590;BME280;12231;42.782;23.388;2023-03-18T06:34:27;96036.25;;;9.05;73.82
19590;BME280;12231;42.782;23.388;2023-03-18T06:36:52;96038.97;;;8.83;74.66
19590;BME280;12231;42.782;23.388;2023-03-18T06:39:18;96027.22;;;9.15;73.66
19590;BME280;12231;42.782;23.388;2023-03-18T06:41:44;96015.09;;;9.69;74.06
19590;BME280;12231;42.782;23.388;2023-03-18T06:44:10;96012.25;;;10.25;71.31
19590;BME280;12231;42.782;23.388;2023-03-18T06:46:37;96016.28;;;10.31;70.24
19590;BME280;12231;42.782;23.388;2023-03-18T06:49:03;96021.28;;;10.49;70.15
19590;BME280;12231;42.782;23.388;2023-03-18T06:51:28;96012.28;;;11.20;69.98
19590;BME280;12231;42.782;23.388;2023-03-18T06:53:53;96008.41;;;12.02;67.81
19590;BME280;12231;42.782;23.388;2023-03-18T06:56:19;95998.88;;;12.87;65.29
19590;BME280;12231;42.782;23.388;2023-03-18T06:58:45;96003.78;;;14.10;57.85
19590;BME280;12231;42.782;23.388;2023-03-18T07:01:10;95997.47;;;15.13;54.27
19590;BME280;12231;42.782;23.388;2023-03-18T07:03:37;95988.41;;;15.19;51.69
19590;BME280;12231;42.782;23.388;2023-03-18T07:06:03;95990.34;;;15.28;52.07
19590;BME280;12231;42.782;23.388;2023-03-18T07:08:29;95986.75;;;15.88;51.03
19590;BME280;12231;42.782;23.388;2023-03-18T07:10:54;95985.59;;;17.04;48.43
19590;BME280;12231;42.782;23.388;2023-03-18T07:13:20;95986.00;;;17.74;45.40
19590;BME280;12231;42.782;23.388;2023-03-18T07:15:45;95988.94;;;18.22;44.75
19590;BME280;12231;42.782;23.388;2023-03-18T07:18:11;95988.63;;;18.15;45.13
19590;BME280;12231;42.782;23.388;2023-03-18T07:20:38;95989.31;;;17.33;45.15
19590;BME280;12231;42.782;23.388;2023-03-18T07:23:04;95980.84;;;17.84;44.35
19590;BME280;12231;42.782;23.388;2023-03-18T07:25:30;95975.19;;;19.00;43.02
19590;BME280;12231;42.782;23.388;2023-03-18T07:27:57;95976.00;;;20.46;38.99
19590;BME280;12231;42.782;23.388;2023-03-18T07:30:24;95975.63;;;20.31;39.18
19590;BME280;12231;42.782;23.388;2023-03-18T07:32:51;95969.69;;;21.74;36.02
19590;BME280;12231;42.782;23.388;2023-03-18T07:35:16;95965.19;;;22.19;34.65
19590;BME280;12231;42.782;23.388;2023-03-18T07:37:42;95964.09;;;22.47;34.01
19590;BME280;12231;42.782;23.388;2023-03-18T07:40:09;95965.03;;;22.46;33.05
19590;BME280;12231;42.782;23.388;2023-03-18T07:42:36;95964.16;;;22.38;32.85
19590;BME280;12231;42.782;23.388;2023-03-18T07:45:02;95955.34;;;23.40;31.82
19590;BME280;12231;42.782;23.388;2023-03-18T07:47:27;95962.00;;;23.68;30.68
19590;BME280;12231;42.782;23.388;2023-03-18T07:49:53;95965.84;;;22.98;32.21
19590;BME280;12231;42.782;23.388;2023-03-18T07:52:19;95967.41;;;23.66;31.63
19590;BME280;12231;42.782;23.388;2023-03-18T07:54:44;95964.34;;;24.19;30.51
19590;BME280;12231;42.782;23.388;2023-03-18T07:57:10;95973.53;;;21.80;32.49
19590;BME280;12231;42.782;23.388;2023-03-18T07:59:36;95980.84;;;19.93;37.13
19590;BME280;12231;42.782;23.388;2023-03-18T08:02:05;95967.72;;;21.58;33.94
19590;BME280;12231;42.782;23.388;2023-03-18T08:04:32;95964.47;;;23.61;31.47
19590;BME280;12231;42.782;23.388;2023-03-18T08:06:57;95963.88;;;24.15;30.93
19590;BME280;12231;42.782;23.388;2023-03-18T08:09:23;95956.41;;;24.67;30.15
19590;BME280;12231;42.782;23.388;2023-03-18T08:11:49;95962.19;;;23.74;30.16
19590;BME280;12231;42.782;23.388;2023-03-18T08:14:14;95953.47;;;24.38;30.25
19590;BME280;12231;42.782;23.388;2023-03-18T08:16:40;95956.09;;;24.62;28.80
19590;BME280;12231;42.782;23.388;2023-03-18T08:19:05;95964.19;;;20.13;34.87
19590;BME280;12231;42.782;23.388;2023-03-18T08:21:31;95959.63;;;21.69;31.74
19590;BME280;12231;42.782;23.388;2023-03-18T08:23:56;95960.84;;;22.53;31.08
19590;BME280;12231;42.782;23.388;2023-03-18T08:26:22;95952.69;;;22.64;30.26
19590;BME280;12231;42.782;23.388;2023-03-18T08:28:48;95975.59;;;20.21;34.10
19590;BME280;12231;42.782;23.388;2023-03-18T08:31:13;95965.53;;;21.09;33.49
19590;BME280;12231;42.782;23.388;2023-03-18T08:33:40;95968.25;;;20.54;32.19
19590;BME280;12231;42.782;23.388;2023-03-18T08:36:06;95963.16;;;21.60;31.98
19590;BME280;12231;42.782;23.388;2023-03-18T08:38:32;95973.16;;;19.63;34.11
19590;BME280;12231;42.782;23.388;2023-03-18T08:40:58;95959.66;;;22.05;32.22
19590;BME280;12231;42.782;23.388;2023-03-18T08:43:24;95953.56;;;23.40;29.83
19590;BME280;12231;42.782;23.388;2023-03-18T08:45:53;95951.91;;;23.55;28.76
19590;BME280;12231;42.782;23.388;2023-03-18T08:48:19;95957.84;;;22.23;30.56
19590;BME280;12231;42.782;23.388;2023-03-18T08:50:45;95956.78;;;22.59;30.97
19590;BME280;12231;42.782;23.388;2023-03-18T08:53:11;95964.16;;;21.59;31.25
19590;BME280;12231;42.782;23.388;2023-03-18T08:55:37;95975.50;;;19.66;34.92
19590;BME280;12231;42.782;23.388;2023-03-18T08:58:04;95986.53;;;16.48;39.86
19590;BME280;12231;42.782;23.388;2023-03-18T09:00:32;95984.75;;;16.93;39.74
19590;BME280;12231;42.782;23.388;2023-03-18T09:02:58;95983.72;;;17.81;36.83
19590;BME280;12231;42.782;23.388;2023-03-18T09:05:23;95977.44;;;19.24;35.28
19590;BME280;12231;42.782;23.388;2023-03-18T09:07:50;95977.97;;;19.67;35.60
19590;BME280;12231;42.782;23.388;2023-03-18T09:10:15;95986.00;;;18.56;34.87
19590;BME280;12231;42.782;23.388;2023-03-18T09:12:43;95978.44;;;17.17;36.97
19590;BME280;12231;42.782;23.388;2023-03-18T09:15:11;95972.13;;;18.35;37.42
19590;BME280;12231;42.782;23.388;2023-03-18T09:17:38;95979.31;;;19.81;34.84
19590;BME280;12231;42.782;23.388;2023-03-18T09:20:10;95961.34;;;20.99;33.04
19590;BME280;12231;42.782;23.388;2023-03-18T09:22:37;95953.34;;;21.45;31.56
19590;BME280;12231;42.782;23.388;2023-03-18T09:25:03;95962.66;;;22.10;31.59
19590;BME280;12231;42.782;23.388;2023-03-18T09:27:29;95957.69;;;21.71;30.94
19590;BME280;12231;42.782;23.388;2023-03-18T09:29:55;95967.31;;;21.18;30.53
19590;BME280;12231;42.782;23.388;2023-03-18T09:32:21;95970.84;;;20.90;31.65
19590;BME280;12231;42.782;23.388;2023-03-18T09:34:47;95969.97;;;19.59;31.84
19590;BME280;12231;42.782;23.388;2023-03-18T09:37:12;95957.72;;;22.07;30.42
19590;BME280;12231;42.782;23.388;2023-03-18T09:39:39;95958.53;;;21.27;29.91
19590;BME280;12231;42.782;23.388;2023-03-18T09:44:51;95952.69;;;21.78;31.72
19590;BME280;12231;42.782;23.388;2023-03-18T09:53:02;95955.19;;;18.30;35.18
19590;BME280;12231;42.782;23.388;2023-03-18T09:55:49;95951.03;;;18.68;35.44
19590;BME280;12231;42.782;23.388;2023-03-18T10:01:11;95956.22;;;17.56;36.71
19590;BME280;12231;42.782;23.388;2023-03-18T10:04:32;95954.59;;;17.33;38.59
19590;BME280;12231;42.782;23.388;2023-03-18T10:06:28;95954.53;;;17.87;34.65
19590;BME280;12231;42.782;23.388;2023-03-18T10:19:54;95961.59;;;16.57;39.29
19590;BME280;12231;42.782;23.388;2023-03-18T10:34:16;95972.41;;;14.88;40.21
19590;BME280;12231;42.782;23.388;2023-03-18T10:39:17;95979.16;;;13.78;42.09
19590;BME280;12231;42.782;23.388;2023-03-18T10:41:49;95982.41;;;12.33;47.36
19590;BME280;12231;42.782;23.388;2023-03-18T10:44:20;95994.56;;;10.98;46.09
19590;BME280;12231;42.782;23.388;2023-03-18T10:46:47;95987.41;;;10.72;48.05
19590;BME280;12231;42.782;23.388;2023-03-18T10:49:22;95980.13;;;11.55;46.68
19590;BME280;12231;42.782;23.388;2023-03-18T10:52:04;95972.44;;;12.55;45.85
19590;BME280;12231;42.782;23.388;2023-03-18T10:54:39;95972.97;;;12.74;41.14
19590;BME280;12231;42.782;23.388;2023-03-18T10:57:05;95965.50;;;12.96;41.22
19590;BME280;12231;42.782;23.388;2023-03-18T10:59:32;95953.47;;;13.23;40.40
19590;BME280;12231;42.782;23.388;2023-03-18T11:02:02;95976.41;;;12.04;42.89
19590;BME280;12231;42.782;23.388;2023-03-18T11:04:34;95960.38;;;13.23;41.56
19590;BME280;12231;42.782;23.388;2023-03-18T11:07:05;95964.38;;;13.41;39.74
19590;BME280;12231;42.782;23.388;2023-03-18T11:09:35;95971.94;;;13.44;38.72
19590;BME280;12231;42.782;23.388;2023-03-18T11:12:26;95975.38;;;12.49;41.02
19590;BME280;12231;42.782;23.388;2023-03-18T11:14:53;95986.91;;;11.58;42.27
19590;BME280;12231;42.782;23.388;2023-03-18T11:22:48;95982.66;;;10.80;42.39
19590;BME280;12231;42.782;23.388;2023-03-18T11:25:19;95969.84;;;11.10;42.72
19590;BME280;12231;42.782;23.388;2023-03-18T11:27:58;95973.94;;;10.52;45.20
19590;BME280;12231;42.782;23.388;2023-03-18T11:30:28;95970.34;;;10.54;44.91
19590;BME280;12231;42.782;23.388;2023-03-18T11:33:12;95973.09;;;10.51;44.61
19590;BME280;12231;42.782;23.388;2023-03-18T11:38:36;95964.56;;;10.01;44.83
19590;BME280;12231;42.782;23.388;2023-03-18T11:41:16;95966.81;;;10.24;45.04
19590;BME280;12231;42.782;23.388;2023-03-18T11:44:05;95951.44;;;11.46;44.56
19590;BME280;12231;42.782;23.388;2023-03-18T11:46:34;95953.41;;;11.27;42.80
19590;BME280;12231;42.782;23.388;2023-03-18T11:49:01;95947.50;;;11.84;43.88
19590;BME280;12231;42.782;23.388;2023-03-18T11:56:45;95959.69;;;11.96;41.07
19590;BME280;12231;42.782;23.388;2023-03-18T12:01:55;95965.81;;;9.77;45.29
19590;BME280;12231;42.782;23.388;2023-03-18T12:05:04;95965.00;;;10.42;44.36
19590;BME280;12231;42.782;23.388;2023-03-18T12:10:37;95953.72;;;10.75;42.55
19590;BME280;12231;42.782;23.388;2023-03-18T12:24:36;95928.59;;;12.39;44.04
19590;BME280;12231;42.782;23.388;2023-03-18T12:27:44;95941.00;;;12.75;40.48
19590;BME280;12231;42.782;23.388;2023-03-18T12:38:36;95941.81;;;12.21;41.46
19590;BME280;12231;42.782;23.388;2023-03-18T12:47:19;95928.25;;;12.72;39.63
19590;BME280;12231;42.782;23.388;2023-03-18T12:50:01;95937.81;;;12.29;39.72
19590;BME280;12231;42.782;23.388;2023-03-18T12:52:36;95937.44;;;11.79;41.51
19590;BME280;12231;42.782;23.388;2023-03-18T12:57:52;95923.13;;;12.44;39.12
19590;BME280;12231;42.782;23.388;2023-03-18T13:00:31;95916.09;;;12.46;38.49
19590;BME280;12231;42.782;23.388;2023-03-18T13:11:06;95933.47;;;11.88;38.73
19590;BME280;12231;42.782;23.388;2023-03-18T13:13:35;95932.75;;;12.14;37.25
19590;BME280;12231;42.782;23.388;2023-03-18T13:16:08;95922.84;;;12.34;36.96
19590;BME280;12231;42.782;23.388;2023-03-18T13:18:43;95922.97;;;12.47;37.07
19590;BME280;12231;42.782;23.388;2023-03-18T13:21:15;95919.56;;;12.32;39.23
19590;BME280;12231;42.782;23.388;2023-03-18T13:26:47;95927.84;;;11.81;39.58
19590;BME280;12231;42.782;23.388;2023-03-18T13:29:42;95923.91;;;12.18;38.73
19590;BME280;12231;42.782;23.388;2023-03-18T13:43:39;95906.41;;;12.90;38.33
19590;BME280;12231;42.782;23.388;2023-03-18T13:46:19;95925.09;;;12.81;37.56
19590;BME280;12231;42.782;23.388;2023-03-18T13:48:47;95928.88;;;11.20;37.58
19590;BME280;12231;42.782;23.388;2023-03-18T13:53:49;95908.47;;;12.30;39.04
19590;BME280;12231;42.782;23.388;2023-03-18T13:56:45;95900.97;;;12.81;37.81
19590;BME280;12231;42.782;23.388;2023-03-18T14:02:24;95904.44;;;12.12;36.48
19590;BME280;12231;42.782;23.388;2023-03-18T14:04:54;95899.72;;;12.19;36.01
19590;BME280;12231;42.782;23.388;2023-03-18T14:07:22;95897.50;;;12.27;36.80
19590;BME280;12231;42.782;23.388;2023-03-18T14:17:53;95890.94;;;12.35;37.76
19590;BME280;12231;42.782;23.388;2023-03-18T14:25:39;95901.25;;;12.50;37.15
19590;BME280;12231;42.782;23.388;2023-03-18T14:33:03;95909.41;;;11.73;36.85
19590;BME280;12231;42.782;23.388;2023-03-18T14:35:36;95906.69;;;11.61;37.46
19590;BME280;12231;42.782;23.388;2023-03-18T14:40:45;95915.94;;;11.05;37.93
19590;BME280;12231;42.782;23.388;2023-03-18T14:43:33;95914.72;;;11.27;39.27
19590;BME280;12231;42.782;23.388;2023-03-18T14:46:12;95923.13;;;11.15;38.52
19590;BME280;12231;42.782;23.388;2023-03-18T14:48:38;95913.59;;;11.31;39.71
19590;BME280;12231;42.782;23.388;2023-03-18T14:51:15;95927.38;;;11.16;38.24
19590;BME280;12231;42.782;23.388;2023-03-18T14:53:49;95929.75;;;10.89;38.90
19590;BME280;12231;42.782;23.388;2023-03-18T14:56:20;95917.63;;;10.91;39.65
19590;BME280;12231;42.782;23.388;2023-03-18T14:58:47;95919.41;;;11.04;40.82
19590;BME280;12231;42.782;23.388;2023-03-18T15:01:17;95924.44;;;10.92;39.87
19590;BME280;12231;42.782;23.388;2023-03-18T15:03:47;95922.91;;;10.88;39.80
19590;BME280;12231;42.782;23.388;2023-03-18T15:06:21;95922.19;;;10.86;39.72
19590;BME280;12231;42.782;23.388;2023-03-18T15:08:51;95926.59;;;10.84;39.16
19590;BME280;12231;42.782;23.388;2023-03-18T15:11:18;95923.94;;;10.85;40.96